Time;durP1;ratioP1;P1;durP2;ratioP2;P2;SDS_P1;SDS_P2;PMS_P1;PMS_P2;Temp;Humidity;BMP_temperature;BMP_pressure;BME280_temperature;BME280_humidity;BME280_pressure;Samples;Min_cycle;Max_cycle;Signal;HPM_P1;HPM_P2
2022/05/02 00:02:27;;;;;;;9.82;5.80;;;7.10;99.90;;;;;;5069731;28;19916;-64
2022/05/02 00:04:56;;;;;;;13.60;6.40;;;7.00;99.90;;;;;;5080091;28;20044;-64
2022/05/02 00:07:22;;;;;;;;;;;7.00;99.90;;;;;;5079655;28;20055;-64
2022/05/02 00:09:47;;;;;;;11.27;5.25;;;6.90;99.90;;;;;;5078194;28;19920;-63
2022/05/02 00:12:13;;;;;;;;;;;6.90;99.90;;;;;;5079267;28;20501;-64
2022/05/02 00:14:38;;;;;;;14.32;6.10;;;6.90;99.90;;;;;;5078655;28;19924;-64
2022/05/02 00:17:04;;;;;;;;;;;6.80;99.90;;;;;;5076461;28;20110;-64
2022/05/02 00:19:36;;;;;;;10.70;6.40;;;6.70;99.90;;;;;;5065565;28;19916;-64
2022/05/02 00:22:02;;;;;;;17.30;7.63;;;6.70;99.90;;;;;;5065808;28;20063;-64
2022/05/02 00:24:30;;;;;;;;;;;6.70;99.90;;;;;;5065361;28;20036;-64
2022/05/02 00:26:58;;;;;;;16.02;6.85;;;6.60;99.90;;;;;;5066271;28;20332;-63
2022/05/02 00:29:24;;;;;;;13.88;6.60;;;6.60;99.90;;;;;;5066106;28;20389;-64
2022/05/02 00:31:50;;;;;;;;;;;6.50;99.90;;;;;;5064747;28;20124;-63
2022/05/02 00:34:15;;;;;;;14.63;6.15;;;6.40;99.90;;;;;;5064936;28;20003;-63
2022/05/02 00:36:41;;;;;;;15.35;7.50;;;6.40;99.90;;;;;;5065385;28;20127;-64
2022/05/02 00:39:07;;;;;;;;;;;6.40;99.90;;;;;;5065651;28;20036;-64
2022/05/02 00:41:33;;;;;;;12.77;6.93;;;6.40;99.90;;;;;;5065327;28;19916;-64
2022/05/02 00:43:58;;;;;;;11.60;6.15;;;6.30;99.90;;;;;;5063181;28;20142;-64
2022/05/02 00:46:25;;;;;;;15.23;7.20;;;6.30;99.90;;;;;;5063988;28;20040;-64
2022/05/02 00:48:52;;;;;;;13.35;7.05;;;6.30;99.90;;;;;;5065013;28;20410;-64
2022/05/02 00:51:18;;;;;;;12.18;7.10;;;6.20;99.90;;;;;;5065293;28;20098;-63
2022/05/02 00:53:46;;;;;;;11.25;6.60;;;6.20;99.90;;;;;;5065468;28;20048;-63
2022/05/02 00:56:12;;;;;;;10.20;5.88;;;6.20;99.90;;;;;;5065016;28;20603;-64
2022/05/02 00:58:38;;;;;;;16.38;7.03;;;6.20;99.90;;;;;;5065479;28;20059;-64
2022/05/02 01:01:05;;;;;;;14.43;7.00;;;6.10;99.90;;;;;;5062951;28;20039;-64
2022/05/02 01:03:31;;;;;;;15.30;7.00;;;6.10;99.90;;;;;;5063583;28;20036;-63
2022/05/02 01:08:42;;;;;;;14.52;7.57;;;6.00;99.90;;;;;;5067346;28;20060;-65
2022/05/02 01:11:08;;;;;;;11.55;6.20;;;6.00;99.90;;;;;;5064662;28;20078;-66
2022/05/02 01:13:38;;;;;;;13.43;6.65;;;6.00;99.90;;;;;;5064692;28;20039;-64
2022/05/02 01:16:13;;;;;;;10.38;6.65;;;6.10;99.90;;;;;;5064689;28;20052;-63
2022/05/02 01:18:39;;;;;;;13.60;7.07;;;6.10;99.90;;;;;;5065118;28;20123;-64
2022/05/02 01:21:14;;;;;;;11.45;6.95;;;6.10;99.90;;;;;;5064308;28;20454;-63
2022/05/02 01:23:41;;;;;;;11.82;6.50;;;6.20;99.90;;;;;;5065232;28;20049;-64
2022/05/02 01:26:07;;;;;;;15.48;7.18;;;6.20;99.90;;;;;;5063831;28;20041;-63
2022/05/02 01:28:39;;;;;;;;;;;6.20;99.90;;;;;;5062554;28;20493;-63
2022/05/02 01:31:04;;;;;;;14.82;7.32;;;6.20;99.90;;;;;;5062114;28;19920;-63
2022/05/02 01:33:30;;;;;;;12.65;6.38;;;6.10;99.90;;;;;;5064380;28;20039;-62
2022/05/02 01:35:56;;;;;;;;;;;6.20;99.90;;;;;;5064475;28;20458;-63
2022/05/02 01:38:22;;;;;;;12.57;6.90;;;6.20;99.90;;;;;;5064362;28;20123;-64
2022/05/02 01:40:47;;;;;;;;;;;6.20;99.90;;;;;;5066544;28;20036;-64
2022/05/02 01:43:13;;;;;;;20.20;6.82;;;6.30;99.90;;;;;;5065145;28;20019;-64
2022/05/02 01:45:38;;;;;;;11.65;6.53;;;6.30;99.90;;;;;;5064513;28;20106;-63
2022/05/02 01:48:04;;;;;;;;;;;6.30;99.90;;;;;;5065571;28;20035;-64
2022/05/02 01:50:30;;;;;;;11.15;6.18;;;6.20;99.90;;;;;;5064494;28;19917;-64
2022/05/02 01:52:55;;;;;;;11.23;7.13;;;6.30;99.90;;;;;;5063606;28;20043;-64
2022/05/02 01:55:21;;;;;;;12.13;7.40;;;6.30;99.90;;;;;;5064053;28;20041;-63
2022/05/02 01:57:47;;;;;;;15.70;7.28;;;6.30;99.90;;;;;;5063454;28;20753;-64
2022/05/02 02:00:13;;;;;;;13.98;6.20;;;6.30;99.90;;;;;;5064128;28;20060;-63
2022/05/02 02:02:39;;;;;;;13.35;7.10;;;6.40;99.90;;;;;;5062183;28;20074;-64
2022/05/02 02:07:48;;;;;;;11.95;6.22;;;6.30;99.90;;;;;;5053258;28;19924;-63
2022/05/02 02:10:14;;;;;;;;;;;6.30;99.90;;;;;;5063536;28;20039;-63
2022/05/02 02:12:40;;;;;;;13.48;6.53;;;6.30;99.90;;;;;;5064348;28;20295;-63
2022/05/02 02:15:06;;;;;;;12.77;6.80;;;6.30;99.90;;;;;;5079117;28;20088;-63
2022/05/02 02:17:32;;;;;;;11.85;6.22;;;6.20;99.90;;;;;;5063418;28;20071;-63
2022/05/02 02:19:57;;;;;;;13.43;7.03;;;6.20;99.90;;;;;;5062668;28;20122;-63
2022/05/02 02:22:23;;;;;;;;;;;6.20;99.90;;;;;;5063367;28;20524;-63
2022/05/02 02:24:49;;;;;;;14.45;6.60;;;6.20;99.90;;;;;;5063629;28;19916;-63
2022/05/02 02:27:15;;;;;;;11.77;6.57;;;6.20;99.90;;;;;;5062922;28;20079;-63
2022/05/02 02:29:41;;;;;;;12.18;7.07;;;6.20;99.90;;;;;;5064214;28;20040;-63
2022/05/02 02:32:07;;;;;;;19.27;7.78;;;6.10;99.90;;;;;;5062247;28;20036;-64
2022/05/02 02:34:33;;;;;;;13.73;7.10;;;6.10;99.90;;;;;;5062568;28;20040;-64
2022/05/02 02:36:59;;;;;;;;;;;6.20;99.90;;;;;;5062191;28;20048;-64
2022/05/02 02:39:24;;;;;;;15.82;6.90;;;6.20;99.90;;;;;;5063970;28;19916;-63
2022/05/02 02:41:50;;;;;;;;;;;6.20;99.90;;;;;;5064629;28;20038;-63
2022/05/02 02:44:15;;;;;;;12.00;5.93;;;6.20;99.90;;;;;;5064660;28;19917;-64
2022/05/02 02:46:41;;;;;;;15.57;8.18;;;6.10;99.90;;;;;;5062939;28;20076;-63
2022/05/02 02:49:06;;;;;;;;;;;6.10;99.90;;;;;;5064817;28;20657;-63
2022/05/02 02:51:32;;;;;;;11.45;7.20;;;6.20;99.90;;;;;;5064074;28;19920;-63
2022/05/02 02:53:57;;;;;;;;;;;6.20;99.90;;;;;;5067062;28;20483;-60
2022/05/02 02:56:23;;;;;;;8.75;6.28;;;6.20;99.90;;;;;;5065044;28;19924;-62
2022/05/02 02:58:48;;;;;;;;;;;6.30;99.90;;;;;;5065709;28;20492;-63
2022/05/02 03:01:14;;;;;;;16.77;7.93;;;6.10;99.90;;;;;;5063267;28;19923;-63
2022/05/02 03:03:40;;;;;;;13.48;7.85;;;6.10;99.90;;;;;;5064573;28;20546;-63
2022/05/02 03:06:05;;;;;;;;;;;6.10;99.90;;;;;;5064909;28;20124;-63
2022/05/02 03:08:36;;;;;;;14.23;7.63;;;6.00;99.90;;;;;;5063866;28;19930;-63
2022/05/02 03:11:02;;;;;;;11.48;6.15;;;6.00;99.90;;;;;;5064115;28;20102;-63
2022/05/02 03:13:29;;;;;;;11.85;7.03;;;6.00;99.90;;;;;;5064034;28;20047;-63
2022/05/02 03:15:54;;;;;;;12.60;6.78;;;6.00;99.90;;;;;;5064404;28;20753;-63
2022/05/02 03:18:20;;;;;;;11.00;7.13;;;6.00;99.90;;;;;;5064222;28;20057;-63
2022/05/02 03:20:45;;;;;;;;;;;6.00;99.90;;;;;;5065020;28;20068;-63
2022/05/02 03:23:11;;;;;;;11.00;6.90;;;5.90;99.90;;;;;;5064030;28;19920;-63
2022/05/02 03:25:37;;;;;;;;;;;5.80;99.90;;;;;;5063043;28;20094;-65
2022/05/02 03:28:03;;;;;;;14.18;7.78;;;5.70;99.90;;;;;;5062575;28;19999;-64
2022/05/02 03:30:28;;;;;;;;;;;5.80;99.90;;;;;;5062336;28;20047;-66
2022/05/02 03:32:54;;;;;;;17.08;7.28;;;5.70;99.90;;;;;;5061852;28;19921;-65
2022/05/02 03:35:19;;;;;;;;;;;5.80;99.90;;;;;;5063721;28;20573;-65
2022/05/02 03:37:45;;;;;;;10.95;6.65;;;5.70;99.90;;;;;;5062889;28;20007;-65
2022/05/02 03:40:10;;;;;;;;;;;5.70;99.90;;;;;;5079147;28;20514;-66
2022/05/02 03:42:37;;;;;;;14.02;6.60;;;5.70;99.90;;;;;;5062156;28;19912;-64
2022/05/02 03:45:04;;;;;;;12.48;7.65;;;5.70;99.90;;;;;;5063013;28;20079;-64
2022/05/02 03:47:30;;;;;;;13.75;7.38;;;5.70;99.90;;;;;;5062887;28;20242;-65
2022/05/02 03:49:55;;;;;;;18.00;8.32;;;5.70;99.90;;;;;;5062578;28;20142;-65
2022/05/02 03:52:21;;;;;;;;;;;5.70;99.90;;;;;;5058577;28;20040;-65
2022/05/02 03:54:46;;;;;;;9.68;7.10;;;5.70;99.90;;;;;;5056372;28;19921;-64
2022/05/02 03:57:12;;;;;;;16.50;7.72;;;5.70;99.90;;;;;;5057763;28;20043;-65
2022/05/02 03:59:38;;;;;;;;;;;5.70;99.90;;;;;;5061581;28;20028;-67
2022/05/02 04:02:04;;;;;;;12.95;7.53;;;5.70;99.90;;;;;;5064329;28;19986;-67
2022/05/02 04:04:29;;;;;;;11.32;7.10;;;5.70;99.90;;;;;;5067195;28;20632;-66
2022/05/02 04:06:56;;;;;;;21.52;8.13;;;5.80;99.90;;;;;;5066890;28;20116;-66
2022/05/02 04:09:22;;;;;;;20.92;8.90;;;5.80;99.90;;;;;;5066522;28;20048;-70
2022/05/02 04:11:47;;;;;;;15.07;7.80;;;5.90;99.90;;;;;;5065319;28;20028;-65
2022/05/02 04:14:13;;;;;;;;;;;5.80;99.90;;;;;;5068041;28;20075;-65
2022/05/02 04:16:38;;;;;;;12.73;7.10;;;5.90;99.90;;;;;;5068555;28;19939;-65
2022/05/02 04:19:04;;;;;;;12.45;7.50;;;5.90;99.90;;;;;;5066836;28;20041;-65
2022/05/02 04:21:30;;;;;;;15.18;8.00;;;6.00;99.90;;;;;;5063630;28;20033;-65
2022/05/02 04:23:55;;;;;;;15.23;8.27;;;6.00;99.90;;;;;;5066698;28;20032;-65
2022/05/02 04:26:22;;;;;;;16.55;7.53;;;6.10;99.90;;;;;;5065754;28;20702;-65
2022/05/02 04:28:47;;;;;;;16.50;7.72;;;6.20;99.90;;;;;;5066543;28;20046;-65
2022/05/02 04:31:13;;;;;;;;;;;6.30;99.90;;;;;;5063691;28;20044;-64
2022/05/02 04:33:39;;;;;;;11.90;7.20;;;6.40;99.90;;;;;;5065724;28;20435;-64
2022/05/02 04:36:06;;;;;;;9.35;6.70;;;6.40;99.90;;;;;;5065647;28;20123;-67
2022/05/02 04:38:31;;;;;;;12.20;7.15;;;6.50;99.90;;;;;;5065573;28;20040;-69
2022/05/02 04:40:57;;;;;;;;;;;6.70;99.90;;;;;;5068027;28;20085;-65
2022/05/02 04:43:23;;;;;;;14.15;7.63;;;6.70;99.90;;;;;;5064160;28;19927;-66
2022/05/02 04:45:49;;;;;;;13.40;7.28;;;6.80;99.90;;;;;;5065916;28;20541;-64
2022/05/02 04:48:15;;;;;;;;;;;7.00;99.90;;;;;;5066353;28;20090;-64
2022/05/02 04:50:40;;;;;;;17.38;7.22;;;7.30;99.90;;;;;;5066065;28;20440;-65
2022/05/02 04:53:06;;;;;;;;;;;7.30;99.90;;;;;;5065820;28;20740;-66
2022/05/02 04:55:31;;;;;;;12.38;6.57;;;7.40;99.90;;;;;;5065415;28;19965;-66
2022/05/02 04:57:57;;;;;;;16.05;6.53;;;8.10;99.90;;;;;;5065465;28;20140;-65
2022/05/02 05:00:23;;;;;;;;;;;8.60;99.90;;;;;;5064763;28;20052;-65
2022/05/02 05:02:48;;;;;;;11.13;6.35;;;9.10;99.90;;;;;;5064175;28;20461;-65
2022/05/02 05:05:14;;;;;;;;;;;9.50;99.90;;;;;;5065451;28;20047;-65
2022/05/02 05:07:40;;;;;;;10.25;6.13;;;10.10;99.90;;;;;;5060990;28;19931;-65
2022/05/02 05:10:07;;;;;;;;;;;10.70;99.90;;;;;;5062171;28;20040;-64
2022/05/02 05:12:57;;;;;;;9.68;6.18;;;10.80;99.90;;;;;;5062029;28;20643;-65
2022/05/02 05:16:21;;;;;;;11.85;5.82;;;10.70;99.90;;;;;;5064238;28;20053;-64
2022/05/02 05:19:00;;;;;;;12.40;5.75;;;10.90;99.90;;;;;;5059871;28;20492;-65
2022/05/02 05:21:49;;;;;;;15.88;6.35;;;10.50;99.90;;;;;;5063013;28;20039;-65
2022/05/02 05:24:43;;;;;;;13.68;6.78;;;10.10;99.90;;;;;;5063204;28;20097;-66
2022/05/02 05:27:46;;;;;;;11.95;5.72;;;9.70;99.90;;;;;;5064703;28;20045;-66
2022/05/02 05:30:12;;;;;;;13.82;6.40;;;9.60;99.90;;;;;;5061381;28;20032;-66
2022/05/02 05:32:50;;;;;;;;;;;9.70;99.90;;;;;;5065477;28;20036;-66
2022/05/02 05:35:23;;;;;;;10.25;5.72;;;9.80;99.90;;;;;;5065038;28;20588;-66
2022/05/02 05:38:06;;;;;;;15.00;5.38;;;10.80;99.90;;;;;;5065029;28;20059;-66
2022/05/02 05:40:42;;;;;;;8.13;4.82;;;11.70;99.90;;;;;;5061372;28;20060;-66
2022/05/02 05:43:32;;;;;;;9.15;5.80;;;12.50;99.90;;;;;;5064436;28;20025;-66
2022/05/02 05:46:19;;;;;;;11.25;5.32;;;13.40;99.90;;;;;;5060119;28;20746;-66
2022/05/02 05:49:14;;;;;;;13.48;5.50;;;13.70;99.90;;;;;;5058331;28;20042;-66
2022/05/02 05:51:48;;;;;;;10.13;5.32;;;14.00;99.90;;;;;;5061294;28;20091;-66
2022/05/02 05:54:51;;;;;;;10.43;4.88;;;14.00;99.90;;;;;;5062780;28;20395;-66
2022/05/02 05:57:37;;;;;;;12.98;5.10;;;14.30;99.90;;;;;;5056185;28;20051;-66
2022/05/02 06:00:09;;;;;;;11.25;5.53;;;14.60;99.90;;;;;;5061401;28;20040;-66
2022/05/02 06:03:02;;;;;;;9.25;5.13;;;14.80;96.70;;;;;;5054066;28;20041;-66
2022/05/02 06:05:28;;;;;;;8.45;5.82;;;14.70;98.50;;;;;;5062546;28;20040;-66
2022/05/02 06:07:55;;;;;;;;;;;14.50;95.20;;;;;;5064725;28;20458;-66
2022/05/02 06:10:23;;;;;;;6.77;4.93;;;14.10;96.90;;;;;;5061578;28;19924;-66
2022/05/02 06:12:50;;;;;;;14.45;6.47;;;13.90;99.60;;;;;;5063598;28;20981;-66
2022/05/02 06:20:51;;;;;;;14.10;7.05;;;13.60;97.90;;;;;;5058835;28;20492;-65
2022/05/02 06:23:17;;;;;;;11.00;5.97;;;13.20;98.10;;;;;;5063270;28;20041;-65
2022/05/02 06:25:48;;;;;;;;;;;12.90;98.80;;;;;;5065400;28;20054;-66
2022/05/02 06:28:15;;;;;;;15.13;6.28;;;12.70;98.60;;;;;;5055078;28;19916;-65
2022/05/02 06:30:43;;;;;;;14.10;6.93;;;12.40;99.10;;;;;;5062771;28;20105;-65
2022/05/02 06:33:13;;;;;;;10.80;5.72;;;12.30;99.30;;;;;;5059714;28;20036;-65
2022/05/02 06:36:17;;;;;;;9.68;6.20;;;12.70;99.70;;;;;;5056983;28;20044;-65
2022/05/02 06:39:01;;;;;;;9.85;6.18;;;13.20;99.10;;;;;;5058080;28;20087;-66
2022/05/02 06:41:53;;;;;;;11.77;6.47;;;13.10;97.60;;;;;;5054313;28;20056;-66
2022/05/02 06:44:29;;;;;;;11.07;6.53;;;13.00;97.70;;;;;;5057331;28;20040;-66
2022/05/02 06:47:20;;;;;;;9.77;6.53;;;13.00;97.10;;;;;;5059988;28;20044;-65
2022/05/02 06:49:51;;;;;;;11.45;6.65;;;12.90;97.60;;;;;;5051559;28;20047;-65
2022/05/02 06:52:31;;;;;;;9.10;5.78;;;12.90;98.10;;;;;;5057353;28;20106;-65
2022/05/02 06:54:59;;;;;;;9.38;5.85;;;13.60;98.50;;;;;;5060254;28;20815;-65
2022/05/02 06:57:35;;;;;;;11.73;5.88;;;14.00;96.90;;;;;;5062076;28;20500;-65
2022/05/02 07:00:17;;;;;;;15.07;6.32;;;14.30;96.50;;;;;;5063464;28;20530;-65
2022/05/02 07:03:06;;;;;;;14.40;6.72;;;15.00;95.70;;;;;;5062029;28;20040;-65
2022/05/02 07:06:18;;;;;;;13.15;5.75;;;16.20;91.60;;;;;;5053175;28;20051;-65
2022/05/02 07:09:23;;;;;;;9.20;5.40;;;16.80;91.70;;;;;;5056803;28;20043;-65
2022/05/02 07:12:25;;;;;;;11.48;5.45;;;16.90;90.80;;;;;;5060445;28;20040;-65
2022/05/02 07:14:58;;;;;;;7.25;5.20;;;16.80;91.20;;;;;;5055458;28;20106;-63
2022/05/02 07:17:41;;;;;;;8.83;6.03;;;16.50;89.50;;;;;;5060981;28;20044;-65
2022/05/02 07:20:25;;;;;;;7.70;5.45;;;16.50;90.30;;;;;;5059622;28;20137;-65
2022/05/02 07:23:05;;;;;;;11.63;5.57;;;16.20;90.20;;;;;;5062941;28;20044;-65
2022/05/02 07:25:34;;;;;;;10.38;5.60;;;16.30;90.50;;;;;;5053226;28;20034;-65
2022/05/02 07:28:44;;;;;;;12.85;6.25;;;16.00;91.90;;;;;;5064337;28;20041;-65
2022/05/02 07:31:11;;;;;;;10.10;5.80;;;15.40;91.60;;;;;;5028764;28;20108;-64
2022/05/02 07:33:38;;;;;;;9.60;5.63;;;15.70;92.10;;;;;;5024640;28;20065;-64
2022/05/02 07:36:05;;;;;;;9.60;6.00;;;15.70;91.30;;;;;;5058202;28;20062;-64
2022/05/02 07:38:33;;;;;;;9.02;4.70;;;15.30;91.90;;;;;;5083810;28;20043;-64
2022/05/02 07:43:49;;;;;;;10.98;6.10;;;15.10;92.50;;;;;;5069880;28;20052;-64
2022/05/02 07:46:20;;;;;;;10.02;6.07;;;14.70;94.20;;;;;;5090590;28;20074;-64
2022/05/02 07:48:48;;;;;;;13.07;6.68;;;14.30;95.50;;;;;;5086458;28;20725;-64
2022/05/02 07:51:14;;;;;;;9.32;5.50;;;14.10;95.40;;;;;;5090665;28;20603;-64
2022/05/02 07:53:42;;;;;;;8.98;5.68;;;14.00;95.80;;;;;;5098324;28;20035;-64
2022/05/02 07:56:09;;;;;;;10.48;5.97;;;14.30;96.30;;;;;;5093534;27;20123;-64
2022/05/02 07:58:39;;;;;;;14.48;6.13;;;14.40;96.40;;;;;;5094586;28;20040;-64
2022/05/02 08:01:04;;;;;;;10.85;5.68;;;14.60;95.60;;;;;;5097502;28;20455;-65
2022/05/02 08:03:30;;;;;;;;;;;14.40;94.90;;;;;;5087549;28;20024;-64
2022/05/02 08:06:01;;;;;;;10.88;6.18;;;14.30;94.70;;;;;;5078939;28;21342;-65
2022/05/02 08:08:47;;;;;;;8.60;5.95;;;14.30;94.80;;;;;;5085826;28;20538;-64
2022/05/02 08:11:29;;;;;;;10.90;5.97;;;14.70;94.50;;;;;;5090658;28;20523;-64
2022/05/02 08:14:17;;;;;;;10.25;6.13;;;14.90;93.60;;;;;;5090181;28;20040;-64
2022/05/02 08:17:02;;;;;;;9.23;6.03;;;15.20;93.80;;;;;;5083698;28;20051;-65
2022/05/02 08:19:43;;;;;;;10.73;5.80;;;15.40;93.20;;;;;;5099286;28;20078;-65
2022/05/02 08:28:02;;;;;;;11.30;6.43;;;15.70;93.10;;;;;;5095982;28;20040;-64
2022/05/02 08:30:34;;;;;;;11.18;5.63;;;15.80;92.80;;;;;;5088404;28;20036;-66
2022/05/02 08:33:08;;;;;;;12.60;6.53;;;15.80;93.50;;;;;;5064529;28;20125;-65
2022/05/02 08:36:08;;;;;;;11.05;6.30;;;15.70;91.60;;;;;;5062290;28;20036;-65
2022/05/02 08:39:01;;;;;;;13.50;5.65;;;15.70;92.10;;;;;;5064053;28;20045;-65
2022/05/02 08:41:30;;;;;;;7.90;5.72;;;15.30;93.80;;;;;;5057555;28;20042;-65
2022/05/02 08:44:41;;;;;;;11.93;5.85;;;15.00;93.90;;;;;;5061727;28;20098;-64
2022/05/02 08:47:38;;;;;;;10.02;5.90;;;14.70;95.10;;;;;;5061097;28;20477;-65
2022/05/02 08:50:33;;;;;;;17.77;7.47;;;14.80;95.70;;;;;;5062004;28;20033;-64
2022/05/02 08:53:05;;;;;;;10.23;6.30;;;14.70;94.50;;;;;;5058554;28;20499;-64
2022/05/02 08:55:36;;;;;;;13.27;7.05;;;14.90;94.40;;;;;;5058017;28;20044;-64
2022/05/02 08:58:23;;;;;;;9.70;6.07;;;14.90;94.40;;;;;;5065119;28;20033;-65
2022/05/02 09:01:16;;;;;;;14.63;7.10;;;14.80;94.50;;;;;;5068039;28;20089;-64
2022/05/02 09:04:26;;;;;;;13.10;6.82;;;14.90;94.80;;;;;;5087874;28;20032;-64
2022/05/02 09:07:04;;;;;;;9.13;6.70;;;14.80;95.40;;;;;;5088158;28;20040;-64
2022/05/02 09:09:58;;;;;;;12.23;7.45;;;14.70;94.80;;;;;;5073647;28;20128;-64
2022/05/02 09:12:48;;;;;;;12.20;7.00;;;14.40;95.70;;;;;;5068432;28;20044;-64
2022/05/02 09:15:29;;;;;;;10.57;6.90;;;14.40;96.90;;;;;;5076061;28;20559;-65
2022/05/02 09:18:23;;;;;;;10.48;7.25;;;14.80;97.10;;;;;;5076252;28;20048;-64
2022/05/02 09:21:21;;;;;;;11.98;7.20;;;14.70;95.90;;;;;;5082436;28;20776;-64
2022/05/02 09:24:25;;;;;;;13.48;8.10;;;14.80;97.60;;;;;;5083393;28;20056;-65
2022/05/02 09:27:09;;;;;;;12.52;7.35;;;14.80;95.70;;;;;;5049896;28;20123;-66
2022/05/02 09:30:16;;;;;;;14.02;7.32;;;15.30;96.60;;;;;;5064444;28;20049;-65
2022/05/02 09:33:24;;;;;;;9.95;6.97;;;15.60;94.60;;;;;;5048271;28;20075;-66
2022/05/02 09:35:54;;;;;;;10.57;7.13;;;15.70;95.70;;;;;;5045701;28;20055;-65
2022/05/02 09:38:25;;;;;;;11.20;7.50;;;15.60;94.50;;;;;;5054634;28;20025;-65
2022/05/02 09:41:00;;;;;;;12.13;7.57;;;15.90;97.70;;;;;;5059063;28;20694;-65
2022/05/02 09:50:06;;;;;;;13.63;8.48;;;16.00;93.90;;;;;;5052152;28;19916;-64
2022/05/02 09:52:48;;;;;;;16.80;8.50;;;16.20;94.90;;;;;;5044659;28;20033;-65
2022/05/02 09:58:35;;;;;;;9.35;7.30;;;16.80;94.80;;;;;;5052769;28;20497;-65
2022/05/02 10:01:20;;;;;;;16.27;8.80;;;17.10;94.70;;;;;;5057898;28;20283;-66
2022/05/02 10:04:37;;;;;;;11.40;7.55;;;16.90;91.20;;;;;;5064953;28;20085;-67
2022/05/02 10:07:07;;;;;;;16.17;9.40;;;16.60;92.20;;;;;;5040176;28;20561;-66
2022/05/02 10:10:04;;;;;;;9.52;7.10;;;16.30;93.00;;;;;;5062831;28;20041;-63
2022/05/02 10:12:53;;;;;;;16.38;9.07;;;16.20;93.40;;;;;;5054041;28;20041;-64
2022/05/02 10:15:56;;;;;;;14.00;8.57;;;16.10;91.60;;;;;;5054199;28;20065;-65
2022/05/02 10:18:31;;;;;;;16.77;9.77;;;16.10;91.00;;;;;;5056687;28;20156;-64
2022/05/02 10:21:28;;;;;;;16.83;9.35;;;16.20;90.50;;;;;;5053755;28;20041;-64
2022/05/02 10:24:00;;;;;;;11.73;7.95;;;16.60;93.40;;;;;;5053726;28;20056;-64
2022/05/02 10:26:52;;;;;;;11.07;8.13;;;17.00;91.60;;;;;;5050744;28;20037;-64
2022/05/02 10:29:37;;;;;;;12.20;8.80;;;17.10;91.40;;;;;;5055106;28;20051;-63
2022/05/02 10:32:26;;;;;;;19.08;10.07;;;16.90;92.30;;;;;;5055947;28;20107;-64
2022/05/02 10:34:54;;;;;;;14.75;8.60;;;16.60;88.20;;;;;;5056948;28;20044;-64
2022/05/02 10:37:28;;;;;;;15.02;8.50;;;16.60;90.50;;;;;;5056601;28;20052;-64
2022/05/02 10:40:03;;;;;;;14.75;7.90;;;17.20;93.50;;;;;;5052615;28;20051;-63
2022/05/02 10:42:32;;;;;;;13.45;8.25;;;17.50;92.00;;;;;;5053664;28;20037;-64
2022/05/02 10:45:08;;;;;;;16.50;9.57;;;17.70;92.50;;;;;;5058138;28;20515;-64
2022/05/02 10:47:53;;;;;;;16.02;10.95;;;17.50;90.80;;;;;;5055420;28;20071;-64
2022/05/02 10:50:21;;;;;;;15.23;8.18;;;17.10;90.80;;;;;;5055688;28;20053;-64
2022/05/02 10:52:46;;;;;;;16.02;9.60;;;16.80;92.00;;;;;;5056600;28;20043;-64
2022/05/02 10:55:18;;;;;;;;;;;17.10;90.20;;;;;;5051433;28;20028;-63
2022/05/02 10:57:52;;;;;;;14.50;7.78;;;17.60;92.70;;;;;;5042182;28;19917;-64
2022/05/02 11:00:19;;;;;;;13.35;8.68;;;18.10;89.10;;;;;;5059391;28;20047;-64
2022/05/02 11:03:12;;;;;;;15.20;10.07;;;18.30;87.20;;;;;;5062151;28;20036;-63
2022/05/02 11:06:09;;;;;;;16.98;8.45;;;17.70;90.40;;;;;;5062643;28;20658;-64
2022/05/02 11:08:50;;;;;;;15.88;8.00;;;17.10;88.20;;;;;;5063252;28;20095;-64
2022/05/02 11:11:50;;;;;;;18.30;8.18;;;16.70;92.20;;;;;;5060457;28;20052;-65
2022/05/02 11:14:29;;;;;;;13.18;7.68;;;17.00;92.40;;;;;;5060058;28;20046;-67
2022/05/02 11:17:32;;;;;;;12.52;7.93;;;17.40;91.90;;;;;;5063122;28;20036;-65
2022/05/02 11:23:24;;;;;;;13.48;7.45;;;17.60;90.00;;;;;;5058744;28;20080;-65
2022/05/02 11:25:52;;;;;;;18.55;9.77;;;17.30;90.20;;;;;;5058209;28;20052;-65
2022/05/02 11:28:32;;;;;;;16.17;9.02;;;16.70;90.80;;;;;;5061389;28;20535;-64
2022/05/02 11:31:19;;;;;;;14.98;8.48;;;16.80;91.50;;;;;;5057719;28;20033;-64
2022/05/02 11:34:17;;;;;;;17.55;9.05;;;17.00;91.50;;;;;;5051269;28;20553;-66
2022/05/02 11:36:53;;;;;;;13.98;8.05;;;17.20;90.40;;;;;;5059813;28;20047;-64
2022/05/02 11:39:39;;;;;;;;;;;16.80;89.90;;;;;;5061099;28;20064;-63
2022/05/02 11:42:14;;;;;;;14.05;7.80;;;16.70;90.60;;;;;;5057185;28;19955;-64
2022/05/02 11:45:05;;;;;;;15.60;7.25;;;16.60;85.80;;;;;;5061870;28;20111;-63
2022/05/02 11:47:53;;;;;;;12.02;6.90;;;16.70;88.20;;;;;;5062290;28;20086;-63
2022/05/02 11:50:25;;;;;;;11.50;7.28;;;17.20;88.10;;;;;;5064130;28;20041;-63
2022/05/02 11:52:53;;;;;;;13.07;7.32;;;17.30;87.20;;;;;;5051711;28;20689;-64
2022/05/02 11:55:28;;;;;;;14.05;8.40;;;17.20;86.20;;;;;;5061831;28;20442;-63
2022/05/02 11:58:02;;;;;;;10.77;7.07;;;17.00;88.70;;;;;;5062131;28;20151;-62
2022/05/02 12:00:35;;;;;;;12.05;7.65;;;17.10;89.40;;;;;;5060419;28;20033;-63
2022/05/02 12:03:25;;;;;;;11.05;7.45;;;17.30;91.20;;;;;;5061910;28;20047;-63
2022/05/02 12:06:01;;;;;;;11.82;7.35;;;17.40;88.70;;;;;;5051855;28;20044;-62
2022/05/02 12:08:44;;;;;;;13.02;7.40;;;17.60;84.40;;;;;;5061910;28;20520;-63
2022/05/02 12:11:12;;;;;;;9.55;6.68;;;17.30;84.20;;;;;;5061594;28;20597;-66
2022/05/02 12:13:45;;;;;;;14.02;6.72;;;17.30;85.80;;;;;;5062504;28;20048;-62
2022/05/02 12:16:16;;;;;;;13.35;7.25;;;17.30;83.80;;;;;;5064573;28;20042;-62
2022/05/02 12:18:45;;;;;;;12.65;6.63;;;17.00;84.50;;;;;;5066578;28;20432;-63
2022/05/02 12:21:16;;;;;;;13.23;7.60;;;17.10;90.00;;;;;;5066319;28;20028;-63
2022/05/02 12:23:42;;;;;;;14.77;7.45;;;17.50;88.20;;;;;;5065671;28;20644;-62
2022/05/02 12:26:20;;;;;;;10.52;7.28;;;17.30;83.60;;;;;;5061982;28;20036;-63
2022/05/02 12:28:52;;;;;;;10.27;7.13;;;17.10;84.80;;;;;;5063409;28;20067;-63
2022/05/02 12:31:23;;;;;;;10.05;6.95;;;16.80;85.40;;;;;;5061645;28;20032;-63
2022/05/02 12:33:59;;;;;;;10.10;6.50;;;16.90;88.50;;;;;;5064278;28;20089;-63
2022/05/02 12:36:37;;;;;;;8.32;5.78;;;17.10;85.50;;;;;;5064751;28;20040;-64
2022/05/02 12:39:05;;;;;;;9.25;6.00;;;17.50;83.70;;;;;;5061098;28;20056;-62
2022/05/02 12:41:47;;;;;;;10.65;5.90;;;17.80;86.10;;;;;;5063146;28;20044;-63
2022/05/02 12:44:14;;;;;;;10.23;6.28;;;17.80;84.70;;;;;;5064360;28;20072;-63
2022/05/02 12:46:47;;;;;;;10.68;6.88;;;17.90;83.10;;;;;;5063549;28;20032;-64
2022/05/02 12:49:30;;;;;;;13.93;7.22;;;17.90;82.40;;;;;;5061373;28;20064;-63
2022/05/02 12:51:57;;;;;;;17.95;6.10;;;17.50;83.00;;;;;;5063132;28;20032;-63
2022/05/02 12:54:26;;;;;;;16.77;8.68;;;17.20;82.90;;;;;;5062186;28;20048;-63
2022/05/02 13:02:51;;;;;;;14.35;7.32;;;17.00;87.90;;;;;;5063942;28;20032;-62
2022/05/02 13:05:22;;;;;;;13.57;6.25;;;17.00;90.10;;;;;;5064363;28;20098;-63
2022/05/02 13:07:53;;;;;;;8.18;5.93;;;16.90;86.20;;;;;;5063873;28;20659;-62
2022/05/02 13:10:22;;;;;;;10.18;6.57;;;17.00;90.00;;;;;;5064501;28;20033;-63
2022/05/02 13:12:58;;;;;;;9.48;6.30;;;17.10;87.20;;;;;;5065025;28;20093;-63
2022/05/02 13:15:32;;;;;;;10.32;6.90;;;17.20;88.50;;;;;;5064617;28;20053;-62
2022/05/02 13:18:01;;;;;;;13.73;6.47;;;17.40;88.20;;;;;;5063826;28;20047;-63
2022/05/02 13:20:28;;;;;;;10.23;5.85;;;17.50;85.60;;;;;;5063526;28;20052;-63
2022/05/02 13:23:08;;;;;;;9.45;5.55;;;17.60;84.50;;;;;;5063791;28;20033;-63
2022/05/02 13:26:07;;;;;;;16.73;5.78;;;17.60;83.10;;;;;;5056944;28;20039;-63
2022/05/02 13:28:57;;;;;;;15.77;7.10;;;17.50;80.90;;;;;;5044148;28;20049;-63
2022/05/02 13:31:32;;;;;;;13.32;7.45;;;17.60;85.10;;;;;;5057864;28;20779;-63
2022/05/02 13:34:02;;;;;;;10.85;6.90;;;17.70;86.20;;;;;;5064564;28;20055;-63
2022/05/02 13:36:30;;;;;;;14.88;6.65;;;17.90;87.70;;;;;;5070426;28;20079;-63
2022/05/02 13:39:31;;;;;;;8.95;6.88;;;18.00;86.90;;;;;;5079917;28;20044;-63
2022/05/02 13:42:05;;;;;;;10.35;6.32;;;17.60;82.60;;;;;;5054069;28;20048;-65
2022/05/02 13:45:02;;;;;;;15.45;5.97;;;17.50;80.80;;;;;;5064784;28;21231;-64
2022/05/02 13:47:54;;;;;;;7.97;5.55;;;17.40;82.70;;;;;;5079450;28;20047;-64
2022/05/02 13:50:23;;;;;;;10.15;5.20;;;17.70;85.50;;;;;;5084575;28;20766;-64
2022/05/02 13:53:18;;;;;;;11.43;5.63;;;18.00;81.90;;;;;;5072067;28;20380;-63
2022/05/02 13:55:53;;;;;;;13.95;5.57;;;17.80;80.40;;;;;;5064151;28;20526;-64
2022/05/02 13:58:49;;;;;;;11.95;6.45;;;17.70;80.40;;;;;;5079362;28;20050;-64
2022/05/02 14:01:42;;;;;;;10.95;6.18;;;17.60;79.90;;;;;;5080398;28;20528;-63
2022/05/02 14:04:18;;;;;;;8.43;5.28;;;17.30;79.70;;;;;;5063846;28;20040;-63
2022/05/02 14:07:09;;;;;;;8.18;5.55;;;17.20;80.30;;;;;;5064541;28;20067;-63
2022/05/02 14:09:41;;;;;;;7.85;4.90;;;17.20;82.30;;;;;;5071102;28;20041;-63
2022/05/02 14:12:33;;;;;;;8.98;5.78;;;17.30;81.90;;;;;;5069793;28;20076;-64